Dati Storici

Data ora Umidita' aria (%) Temperatura aria (°C) Rad globale (W/m²) Gonioanemometro (°) Tacoanemometro (m/s) Pioggia (mm)
21-06-2020 17:30 58.8 % 24.88 105.379 2.578 0 0
21-06-2020 17:20 59.6 % 25.039 98.842 2.21 0 0
21-06-2020 17:10 60.5 % 24.648 135.741 2.824 0 0
21-06-2020 17:00 60.1 % 25.059 70.28 2.757 0 0
21-06-2020 16:50 61.5 % 25.108 79.512 0.797 0 0
21-06-2020 16:40 60.7 % 24.543 91.233 3.201 0 0
21-06-2020 16:30 59 % 25.109 141.164 3.363 0 0
21-06-2020 16:20 61.2 % 25.637 131.652 2.334 0 0
21-06-2020 16:10 62.5 % 25.612 126.207 0.242 0 0
21-06-2020 16:00 62 % 24.808 140.012 1.925 0 0
21-06-2020 15:50 60.3 % 25.515 142.316 1.34 0 0
21-06-2020 15:40 59.1 % 25.529 101.109 1.803 0 0
21-06-2020 15:30 60.1 % 25.02 115.044 2.456 0 0
21-06-2020 15:20 55.9 % 25.336 132.144 3.872 0 0
21-06-2020 15:10 59.4 % 26.014 150.405 2.317 0 0
21-06-2020 15:00 57.8 % 25.651 95.76 4.326 0 0
21-06-2020 14:50 56.3 % 26.273 107.293 1.717 0 0
21-06-2020 14:40 59.1 % 25.945 103.678 1.11 0 0
21-06-2020 14:30 58.8 % 25.161 100.821 1.043 0 0
21-06-2020 14:20 60 % 25.705 83.44 1.326 0 0

I dati sono presentati in modo automatico a scopo informativo. In seguito a verifica i dati possono subire modifiche o essere invalidati e non riportati negli archivi definitivi.